sensor_id;sensor_type;location;lat;lon;timestamp;P1;durP1;ratioP1;P2;durP2;ratioP2
75417;SDS011;63997;52.112;5.420;2023-07-09T00:01:16;10.32;;;7.22;;
75417;SDS011;63997;52.112;5.420;2023-07-09T00:03:45;13.77;;;7.93;;
75417;SDS011;63997;52.112;5.420;2023-07-09T00:06:14;12.27;;;7.63;;
75417;SDS011;63997;52.112;5.420;2023-07-09T00:08:42;13.43;;;7.35;;
75417;SDS011;63997;52.112;5.420;2023-07-09T00:11:12;10.63;;;7.75;;
75417;SDS011;63997;52.112;5.420;2023-07-09T00:13:38;9.50;;;7.15;;
75417;SDS011;63997;52.112;5.420;2023-07-09T00:16:09;11.52;;;7.43;;
75417;SDS011;63997;52.112;5.420;2023-07-09T00:18:43;11.50;;;7.93;;
75417;SDS011;63997;52.112;5.420;2023-07-09T00:21:09;10.63;;;7.55;;
75417;SDS011;63997;52.112;5.420;2023-07-09T00:23:36;10.95;;;6.53;;
75417;SDS011;63997;52.112;5.420;2023-07-09T00:26:08;9.60;;;6.55;;
75417;SDS011;63997;52.112;5.420;2023-07-09T00:28:36;9.30;;;6.63;;
75417;SDS011;63997;52.112;5.420;2023-07-09T00:31:02;11.03;;;7.07;;
75417;SDS011;63997;52.112;5.420;2023-07-09T00:33:28;9.45;;;7.15;;
75417;SDS011;63997;52.112;5.420;2023-07-09T00:35:57;9.25;;;6.47;;
75417;SDS011;63997;52.112;5.420;2023-07-09T00:38:24;10.65;;;6.35;;
75417;SDS011;63997;52.112;5.420;2023-07-09T00:41:01;10.45;;;7.47;;
75417;SDS011;63997;52.112;5.420;2023-07-09T00:43:31;8.40;;;7.03;;
75417;SDS011;63997;52.112;5.420;2023-07-09T00:46:14;4.28;;;3.75;;
75417;SDS011;63997;52.112;5.420;2023-07-09T00:48:43;4.43;;;3.80;;
75417;SDS011;63997;52.112;5.420;2023-07-09T00:51:12;9.13;;;6.70;;
75417;SDS011;63997;52.112;5.420;2023-07-09T00:53:44;10.50;;;6.97;;
75417;SDS011;63997;52.112;5.420;2023-07-09T00:56:24;11.00;;;6.17;;
75417;SDS011;63997;52.112;5.420;2023-07-09T00:58:56;7.47;;;6.00;;
75417;SDS011;63997;52.112;5.420;2023-07-09T01:01:31;10.02;;;6.88;;
75417;SDS011;63997;52.112;5.420;2023-07-09T01:04:00;8.25;;;6.50;;
75417;SDS011;63997;52.112;5.420;2023-07-09T01:06:40;6.68;;;5.55;;
75417;SDS011;63997;52.112;5.420;2023-07-09T01:09:10;9.57;;;7.07;;
75417;SDS011;63997;52.112;5.420;2023-07-09T01:11:37;10.18;;;6.80;;
75417;SDS011;63997;52.112;5.420;2023-07-09T01:14:07;14.63;;;8.18;;
75417;SDS011;63997;52.112;5.420;2023-07-09T01:16:43;8.38;;;6.60;;
75417;SDS011;63997;52.112;5.420;2023-07-09T01:19:13;9.35;;;6.28;;
75417;SDS011;63997;52.112;5.420;2023-07-09T01:21:40;9.33;;;7.17;;
75417;SDS011;63997;52.112;5.420;2023-07-09T01:24:11;13.13;;;8.38;;
75417;SDS011;63997;52.112;5.420;2023-07-09T01:26:40;9.63;;;6.93;;
75417;SDS011;63997;52.112;5.420;2023-07-09T01:29:07;10.98;;;7.53;;
75417;SDS011;63997;52.112;5.420;2023-07-09T01:31:33;10.10;;;7.13;;
75417;SDS011;63997;52.112;5.420;2023-07-09T01:34:01;8.30;;;5.50;;
75417;SDS011;63997;52.112;5.420;2023-07-09T01:36:27;9.43;;;6.55;;
75417;SDS011;63997;52.112;5.420;2023-07-09T01:38:55;8.15;;;6.63;;
75417;SDS011;63997;52.112;5.420;2023-07-09T01:41:22;11.55;;;7.50;;
75417;SDS011;63997;52.112;5.420;2023-07-09T01:43:48;12.55;;;7.40;;
75417;SDS011;63997;52.112;5.420;2023-07-09T01:46:15;12.10;;;7.87;;
75417;SDS011;63997;52.112;5.420;2023-07-09T01:48:43;8.73;;;7.03;;
75417;SDS011;63997;52.112;5.420;2023-07-09T01:51:11;9.23;;;7.97;;
75417;SDS011;63997;52.112;5.420;2023-07-09T01:53:42;11.13;;;7.53;;
75417;SDS011;63997;52.112;5.420;2023-07-09T01:56:10;11.23;;;6.72;;
75417;SDS011;63997;52.112;5.420;2023-07-09T01:58:37;8.07;;;6.07;;
75417;SDS011;63997;52.112;5.420;2023-07-09T02:01:07;10.48;;;7.53;;
75417;SDS011;63997;52.112;5.420;2023-07-09T02:03:34;8.10;;;6.15;;
75417;SDS011;63997;52.112;5.420;2023-07-09T02:06:00;7.00;;;5.60;;
75417;SDS011;63997;52.112;5.420;2023-07-09T02:08:29;9.05;;;7.22;;
75417;SDS011;63997;52.112;5.420;2023-07-09T02:10:55;8.90;;;7.03;;
75417;SDS011;63997;52.112;5.420;2023-07-09T02:13:22;7.22;;;6.50;;
75417;SDS011;63997;52.112;5.420;2023-07-09T02:15:48;8.32;;;7.03;;
75417;SDS011;63997;52.112;5.420;2023-07-09T02:18:15;8.13;;;7.05;;
75417;SDS011;63997;52.112;5.420;2023-07-09T02:20:41;9.40;;;6.95;;
75417;SDS011;63997;52.112;5.420;2023-07-09T02:23:08;11.73;;;8.13;;
75417;SDS011;63997;52.112;5.420;2023-07-09T02:25:35;8.98;;;7.00;;
75417;SDS011;63997;52.112;5.420;2023-07-09T02:28:01;8.25;;;6.82;;
75417;SDS011;63997;52.112;5.420;2023-07-09T02:30:27;10.77;;;7.47;;
75417;SDS011;63997;52.112;5.420;2023-07-09T02:32:54;9.00;;;7.18;;
75417;SDS011;63997;52.112;5.420;2023-07-09T02:35:21;10.27;;;7.13;;
75417;SDS011;63997;52.112;5.420;2023-07-09T02:37:48;7.25;;;6.43;;
75417;SDS011;63997;52.112;5.420;2023-07-09T02:40:15;9.25;;;7.43;;
75417;SDS011;63997;52.112;5.420;2023-07-09T02:42:42;8.45;;;7.00;;
75417;SDS011;63997;52.112;5.420;2023-07-09T02:45:09;8.07;;;6.45;;
75417;SDS011;63997;52.112;5.420;2023-07-09T02:47:36;12.50;;;7.47;;
75417;SDS011;63997;52.112;5.420;2023-07-09T02:50:03;12.88;;;7.55;;
75417;SDS011;63997;52.112;5.420;2023-07-09T02:52:30;8.73;;;6.03;;
75417;SDS011;63997;52.112;5.420;2023-07-09T02:54:57;8.35;;;6.32;;
75417;SDS011;63997;52.112;5.420;2023-07-09T02:57:23;6.72;;;5.70;;
75417;SDS011;63997;52.112;5.420;2023-07-09T02:59:50;9.30;;;7.17;;
75417;SDS011;63997;52.112;5.420;2023-07-09T03:02:17;8.48;;;7.10;;
75417;SDS011;63997;52.112;5.420;2023-07-09T03:04:43;5.40;;;4.90;;
75417;SDS011;63997;52.112;5.420;2023-07-09T03:07:10;6.25;;;5.28;;
75417;SDS011;63997;52.112;5.420;2023-07-09T03:09:36;5.93;;;5.28;;
75417;SDS011;63997;52.112;5.420;2023-07-09T03:12:02;6.07;;;5.47;;
75417;SDS011;63997;52.112;5.420;2023-07-09T03:14:29;7.25;;;5.97;;
75417;SDS011;63997;52.112;5.420;2023-07-09T03:16:56;6.80;;;6.07;;
75417;SDS011;63997;52.112;5.420;2023-07-09T03:19:23;9.65;;;6.97;;
75417;SDS011;63997;52.112;5.420;2023-07-09T03:21:49;6.72;;;5.90;;
75417;SDS011;63997;52.112;5.420;2023-07-09T03:24:15;5.77;;;4.83;;
75417;SDS011;63997;52.112;5.420;2023-07-09T03:26:45;7.45;;;4.05;;
75417;SDS011;63997;52.112;5.420;2023-07-09T03:29:12;6.85;;;5.97;;
75417;SDS011;63997;52.112;5.420;2023-07-09T03:31:39;8.45;;;5.70;;
75417;SDS011;63997;52.112;5.420;2023-07-09T03:34:05;9.48;;;6.82;;
75417;SDS011;63997;52.112;5.420;2023-07-09T03:36:32;8.50;;;6.77;;
75417;SDS011;63997;52.112;5.420;2023-07-09T03:38:58;9.82;;;7.20;;
75417;SDS011;63997;52.112;5.420;2023-07-09T03:41:25;9.50;;;6.47;;
75417;SDS011;63997;52.112;5.420;2023-07-09T03:43:51;6.30;;;4.28;;
75417;SDS011;63997;52.112;5.420;2023-07-09T03:46:19;10.18;;;5.47;;
75417;SDS011;63997;52.112;5.420;2023-07-09T03:48:46;6.27;;;4.57;;
75417;SDS011;63997;52.112;5.420;2023-07-09T03:51:13;7.22;;;5.55;;
75417;SDS011;63997;52.112;5.420;2023-07-09T03:53:39;7.25;;;4.45;;
75417;SDS011;63997;52.112;5.420;2023-07-09T03:56:06;5.53;;;5.03;;
75417;SDS011;63997;52.112;5.420;2023-07-09T03:58:33;8.02;;;5.22;;
75417;SDS011;63997;52.112;5.420;2023-07-09T04:00:59;7.00;;;5.33;;
75417;SDS011;63997;52.112;5.420;2023-07-09T04:03:26;6.97;;;5.63;;
75417;SDS011;63997;52.112;5.420;2023-07-09T04:05:53;7.10;;;6.07;;
75417;SDS011;63997;52.112;5.420;2023-07-09T04:08:19;7.88;;;6.97;;
75417;SDS011;63997;52.112;5.420;2023-07-09T04:10:46;8.82;;;5.55;;
75417;SDS011;63997;52.112;5.420;2023-07-09T04:13:12;6.90;;;6.20;;
75417;SDS011;63997;52.112;5.420;2023-07-09T04:15:39;7.13;;;6.00;;
75417;SDS011;63997;52.112;5.420;2023-07-09T04:18:05;7.13;;;5.70;;
75417;SDS011;63997;52.112;5.420;2023-07-09T04:20:32;7.85;;;6.32;;
75417;SDS011;63997;52.112;5.420;2023-07-09T04:23:00;7.15;;;6.18;;
75417;SDS011;63997;52.112;5.420;2023-07-09T04:25:27;8.37;;;6.00;;
75417;SDS011;63997;52.112;5.420;2023-07-09T04:27:54;9.55;;;6.13;;
75417;SDS011;63997;52.112;5.420;2023-07-09T04:30:20;7.20;;;6.50;;
75417;SDS011;63997;52.112;5.420;2023-07-09T04:32:46;8.48;;;6.00;;
75417;SDS011;63997;52.112;5.420;2023-07-09T04:35:14;8.25;;;6.25;;
75417;SDS011;63997;52.112;5.420;2023-07-09T04:37:41;9.13;;;6.70;;
75417;SDS011;63997;52.112;5.420;2023-07-09T04:40:08;10.45;;;7.47;;
75417;SDS011;63997;52.112;5.420;2023-07-09T04:42:37;10.18;;;6.85;;
75417;SDS011;63997;52.112;5.420;2023-07-09T04:45:04;8.88;;;7.00;;
75417;SDS011;63997;52.112;5.420;2023-07-09T04:47:31;10.38;;;7.25;;
75417;SDS011;63997;52.112;5.420;2023-07-09T04:49:58;8.83;;;7.17;;
75417;SDS011;63997;52.112;5.420;2023-07-09T04:52:24;13.23;;;6.68;;
75417;SDS011;63997;52.112;5.420;2023-07-09T04:54:51;8.07;;;7.13;;
75417;SDS011;63997;52.112;5.420;2023-07-09T04:57:17;8.70;;;6.95;;
75417;SDS011;63997;52.112;5.420;2023-07-09T04:59:44;8.65;;;7.20;;
75417;SDS011;63997;52.112;5.420;2023-07-09T05:02:10;8.50;;;7.00;;
75417;SDS011;63997;52.112;5.420;2023-07-09T05:04:37;9.45;;;6.90;;
75417;SDS011;63997;52.112;5.420;2023-07-09T05:07:04;9.07;;;7.63;;
75417;SDS011;63997;52.112;5.420;2023-07-09T05:09:31;9.57;;;7.10;;
75417;SDS011;63997;52.112;5.420;2023-07-09T05:11:57;9.02;;;7.30;;
75417;SDS011;63997;52.112;5.420;2023-07-09T05:14:25;10.07;;;7.50;;
75417;SDS011;63997;52.112;5.420;2023-07-09T05:16:52;9.75;;;7.22;;
75417;SDS011;63997;52.112;5.420;2023-07-09T05:19:19;10.40;;;6.72;;
75417;SDS011;63997;52.112;5.420;2023-07-09T05:21:45;10.75;;;7.45;;
75417;SDS011;63997;52.112;5.420;2023-07-09T05:24:12;8.45;;;7.07;;
75417;SDS011;63997;52.112;5.420;2023-07-09T05:26:38;7.80;;;7.00;;
75417;SDS011;63997;52.112;5.420;2023-07-09T05:29:05;8.23;;;7.10;;
75417;SDS011;63997;52.112;5.420;2023-07-09T05:31:32;10.55;;;7.75;;
75417;SDS011;63997;52.112;5.420;2023-07-09T05:33:59;10.10;;;7.75;;
75417;SDS011;63997;52.112;5.420;2023-07-09T05:36:26;12.68;;;8.23;;
75417;SDS011;63997;52.112;5.420;2023-07-09T05:38:54;9.33;;;8.33;;
75417;SDS011;63997;52.112;5.420;2023-07-09T05:41:21;11.93;;;8.93;;
75417;SDS011;63997;52.112;5.420;2023-07-09T05:43:50;11.82;;;8.95;;
75417;SDS011;63997;52.112;5.420;2023-07-09T05:46:18;11.88;;;9.57;;
75417;SDS011;63997;52.112;5.420;2023-07-09T05:48:45;10.18;;;9.18;;
75417;SDS011;63997;52.112;5.420;2023-07-09T05:51:12;11.27;;;9.90;;
75417;SDS011;63997;52.112;5.420;2023-07-09T05:53:38;11.10;;;9.98;;
75417;SDS011;63997;52.112;5.420;2023-07-09T05:56:05;11.70;;;9.52;;
75417;SDS011;63997;52.112;5.420;2023-07-09T05:58:32;12.75;;;10.45;;
75417;SDS011;63997;52.112;5.420;2023-07-09T06:00:58;13.98;;;9.75;;
75417;SDS011;63997;52.112;5.420;2023-07-09T06:03:26;13.27;;;10.07;;
75417;SDS011;63997;52.112;5.420;2023-07-09T06:05:53;12.75;;;9.75;;
75417;SDS011;63997;52.112;5.420;2023-07-09T06:08:20;13.23;;;8.98;;
75417;SDS011;63997;52.112;5.420;2023-07-09T06:10:54;11.73;;;9.15;;
75417;SDS011;63997;52.112;5.420;2023-07-09T06:13:21;19.35;;;11.80;;
75417;SDS011;63997;52.112;5.420;2023-07-09T06:15:49;19.37;;;12.53;;
75417;SDS011;63997;52.112;5.420;2023-07-09T06:18:16;15.18;;;11.68;;
75417;SDS011;63997;52.112;5.420;2023-07-09T06:20:50;15.23;;;10.15;;
75417;SDS011;63997;52.112;5.420;2023-07-09T06:23:18;12.32;;;9.35;;
75417;SDS011;63997;52.112;5.420;2023-07-09T06:25:45;14.40;;;11.32;;
75417;SDS011;63997;52.112;5.420;2023-07-09T06:28:17;14.53;;;11.10;;
75417;SDS011;63997;52.112;5.420;2023-07-09T06:30:46;19.27;;;10.02;;
75417;SDS011;63997;52.112;5.420;2023-07-09T06:33:14;19.55;;;10.80;;
75417;SDS011;63997;52.112;5.420;2023-07-09T06:35:48;13.32;;;10.52;;
75417;SDS011;63997;52.112;5.420;2023-07-09T06:38:20;17.23;;;10.85;;
75417;SDS011;63997;52.112;5.420;2023-07-09T06:40:47;13.83;;;9.87;;
75417;SDS011;63997;52.112;5.420;2023-07-09T06:43:13;16.33;;;10.23;;
75417;SDS011;63997;52.112;5.420;2023-07-09T06:48:39;14.45;;;10.85;;
75417;SDS011;63997;52.112;5.420;2023-07-09T06:51:06;17.13;;;11.15;;
75417;SDS011;63997;52.112;5.420;2023-07-09T06:53:32;15.97;;;10.43;;
75417;SDS011;63997;52.112;5.420;2023-07-09T06:55:59;14.20;;;11.05;;
75417;SDS011;63997;52.112;5.420;2023-07-09T06:58:27;16.20;;;10.45;;
75417;SDS011;63997;52.112;5.420;2023-07-09T07:00:54;16.05;;;10.95;;
75417;SDS011;63997;52.112;5.420;2023-07-09T07:03:21;14.15;;;10.60;;
75417;SDS011;63997;52.112;5.420;2023-07-09T07:05:50;13.17;;;10.43;;
75417;SDS011;63997;52.112;5.420;2023-07-09T07:08:22;15.57;;;11.20;;
75417;SDS011;63997;52.112;5.420;2023-07-09T07:10:50;13.98;;;10.50;;
75417;SDS011;63997;52.112;5.420;2023-07-09T07:13:29;13.43;;;10.50;;
75417;SDS011;63997;52.112;5.420;2023-07-09T07:16:01;13.52;;;9.50;;
75417;SDS011;63997;52.112;5.420;2023-07-09T07:18:29;17.00;;;10.87;;
75417;SDS011;63997;52.112;5.420;2023-07-09T07:20:55;16.80;;;9.93;;
75417;SDS011;63997;52.112;5.420;2023-07-09T07:23:22;12.48;;;10.80;;
75417;SDS011;63997;52.112;5.420;2023-07-09T07:25:49;16.52;;;11.48;;
75417;SDS011;63997;52.112;5.420;2023-07-09T07:28:16;17.60;;;9.95;;
75417;SDS011;63997;52.112;5.420;2023-07-09T07:30:42;14.33;;;10.10;;
75417;SDS011;63997;52.112;5.420;2023-07-09T07:33:09;16.65;;;9.88;;
75417;SDS011;63997;52.112;5.420;2023-07-09T07:35:36;14.63;;;10.32;;
75417;SDS011;63997;52.112;5.420;2023-07-09T07:38:23;14.73;;;9.95;;
75417;SDS011;63997;52.112;5.420;2023-07-09T07:40:49;14.05;;;9.23;;
75417;SDS011;63997;52.112;5.420;2023-07-09T07:43:16;15.97;;;10.37;;
75417;SDS011;63997;52.112;5.420;2023-07-09T07:45:43;16.77;;;9.35;;
75417;SDS011;63997;52.112;5.420;2023-07-09T07:48:10;11.43;;;9.30;;
75417;SDS011;63997;52.112;5.420;2023-07-09T07:50:36;14.48;;;9.80;;
75417;SDS011;63997;52.112;5.420;2023-07-09T07:53:04;14.70;;;8.88;;
75417;SDS011;63997;52.112;5.420;2023-07-09T07:55:30;15.77;;;9.20;;
75417;SDS011;63997;52.112;5.420;2023-07-09T07:57:57;12.68;;;8.90;;
75417;SDS011;63997;52.112;5.420;2023-07-09T08:00:23;11.63;;;9.20;;
75417;SDS011;63997;52.112;5.420;2023-07-09T08:02:50;12.32;;;8.70;;
75417;SDS011;63997;52.112;5.420;2023-07-09T08:05:16;13.23;;;9.07;;
75417;SDS011;63997;52.112;5.420;2023-07-09T08:07:43;14.33;;;7.97;;
75417;SDS011;63997;52.112;5.420;2023-07-09T08:10:10;13.18;;;8.38;;
75417;SDS011;63997;52.112;5.420;2023-07-09T08:12:38;11.93;;;8.15;;
75417;SDS011;63997;52.112;5.420;2023-07-09T08:15:05;10.18;;;7.35;;
75417;SDS011;63997;52.112;5.420;2023-07-09T08:17:32;14.07;;;8.63;;
75417;SDS011;63997;52.112;5.420;2023-07-09T08:19:59;15.23;;;9.83;;
75417;SDS011;63997;52.112;5.420;2023-07-09T08:22:25;11.88;;;6.70;;
75417;SDS011;63997;52.112;5.420;2023-07-09T08:24:51;8.48;;;6.50;;
75417;SDS011;63997;52.112;5.420;2023-07-09T08:27:18;10.00;;;6.85;;
75417;SDS011;63997;52.112;5.420;2023-07-09T08:29:45;8.63;;;6.72;;
75417;SDS011;63997;52.112;5.420;2023-07-09T08:32:13;10.40;;;8.73;;
75417;SDS011;63997;52.112;5.420;2023-07-09T08:34:40;10.15;;;8.57;;
75417;SDS011;63997;52.112;5.420;2023-07-09T08:37:27;14.70;;;8.90;;
75417;SDS011;63997;52.112;5.420;2023-07-09T08:39:54;12.00;;;8.18;;
75417;SDS011;63997;52.112;5.420;2023-07-09T08:42:31;10.82;;;8.18;;
75417;SDS011;63997;52.112;5.420;2023-07-09T08:48:02;11.07;;;7.97;;
75417;SDS011;63997;52.112;5.420;2023-07-09T08:53:13;12.02;;;8.40;;
75417;SDS011;63997;52.112;5.420;2023-07-09T08:55:46;11.48;;;7.45;;
75417;SDS011;63997;52.112;5.420;2023-07-09T08:58:23;12.43;;;7.60;;
75417;SDS011;63997;52.112;5.420;2023-07-09T09:00:54;10.43;;;7.15;;
75417;SDS011;63997;52.112;5.420;2023-07-09T09:03:43;11.85;;;7.68;;
75417;SDS011;63997;52.112;5.420;2023-07-09T09:06:14;13.88;;;7.15;;
75417;SDS011;63997;52.112;5.420;2023-07-09T09:08:54;7.85;;;6.57;;
75417;SDS011;63997;52.112;5.420;2023-07-09T09:14:34;9.32;;;6.22;;
75417;SDS011;63997;52.112;5.420;2023-07-09T09:17:19;8.70;;;5.97;;
75417;SDS011;63997;52.112;5.420;2023-07-09T09:19:56;7.35;;;5.93;;
75417;SDS011;63997;52.112;5.420;2023-07-09T09:22:29;9.38;;;5.70;;
75417;SDS011;63997;52.112;5.420;2023-07-09T09:25:03;9.40;;;5.90;;
75417;SDS011;63997;52.112;5.420;2023-07-09T09:27:41;8.88;;;5.88;;
75417;SDS011;63997;52.112;5.420;2023-07-09T09:30:16;8.60;;;5.95;;
75417;SDS011;63997;52.112;5.420;2023-07-09T09:32:58;9.48;;;5.95;;
75417;SDS011;63997;52.112;5.420;2023-07-09T09:35:39;10.55;;;5.85;;
75417;SDS011;63997;52.112;5.420;2023-07-09T09:38:11;8.33;;;6.50;;
75417;SDS011;63997;52.112;5.420;2023-07-09T09:40:39;8.15;;;5.78;;
75417;SDS011;63997;52.112;5.420;2023-07-09T09:43:11;8.48;;;5.80;;
75417;SDS011;63997;52.112;5.420;2023-07-09T09:45:40;8.02;;;5.70;;
75417;SDS011;63997;52.112;5.420;2023-07-09T09:51:09;7.60;;;5.83;;
75417;SDS011;63997;52.112;5.420;2023-07-09T09:53:38;9.93;;;6.00;;
75417;SDS011;63997;52.112;5.420;2023-07-09T09:56:11;9.45;;;5.03;;
75417;SDS011;63997;52.112;5.420;2023-07-09T09:58:41;10.90;;;5.40;;
75417;SDS011;63997;52.112;5.420;2023-07-09T10:01:14;8.18;;;5.72;;
75417;SDS011;63997;52.112;5.420;2023-07-09T10:03:43;9.73;;;6.07;;
75417;SDS011;63997;52.112;5.420;2023-07-09T10:06:25;8.55;;;5.45;;
75417;SDS011;63997;52.112;5.420;2023-07-09T10:11:31;9.30;;;6.05;;
75417;SDS011;63997;52.112;5.420;2023-07-09T10:14:12;8.65;;;5.32;;
75417;SDS011;63997;52.112;5.420;2023-07-09T10:16:52;7.97;;;5.57;;
75417;SDS011;63997;52.112;5.420;2023-07-09T10:19:25;11.40;;;5.85;;
75417;SDS011;63997;52.112;5.420;2023-07-09T10:22:04;7.32;;;5.15;;
75417;SDS011;63997;52.112;5.420;2023-07-09T10:24:42;8.93;;;5.85;;
75417;SDS011;63997;52.112;5.420;2023-07-09T10:27:27;9.95;;;5.38;;
75417;SDS011;63997;52.112;5.420;2023-07-09T10:33:28;10.25;;;5.68;;
75417;SDS011;63997;52.112;5.420;2023-07-09T10:39:17;9.25;;;5.45;;
75417;SDS011;63997;52.112;5.420;2023-07-09T10:41:49;8.13;;;5.25;;
75417;SDS011;63997;52.112;5.420;2023-07-09T10:44:20;8.60;;;5.13;;
75417;SDS011;63997;52.112;5.420;2023-07-09T10:46:55;9.48;;;5.00;;
75417;SDS011;63997;52.112;5.420;2023-07-09T10:49:37;10.32;;;5.38;;
75417;SDS011;63997;52.112;5.420;2023-07-09T10:54:34;8.77;;;5.40;;
75417;SDS011;63997;52.112;5.420;2023-07-09T10:57:13;8.10;;;4.90;;
75417;SDS011;63997;52.112;5.420;2023-07-09T10:59:46;6.60;;;4.57;;
75417;SDS011;63997;52.112;5.420;2023-07-09T11:02:21;5.65;;;5.13;;
75417;SDS011;63997;52.112;5.420;2023-07-09T11:04:58;11.93;;;7.05;;
75417;SDS011;63997;52.112;5.420;2023-07-09T11:10:05;8.80;;;7.03;;
75417;SDS011;63997;52.112;5.420;2023-07-09T11:12:39;12.68;;;7.20;;
75417;SDS011;63997;52.112;5.420;2023-07-09T11:15:15;11.15;;;7.38;;
75417;SDS011;63997;52.112;5.420;2023-07-09T11:17:56;9.23;;;7.22;;
75417;SDS011;63997;52.112;5.420;2023-07-09T11:20:25;9.75;;;7.05;;
75417;SDS011;63997;52.112;5.420;2023-07-09T11:23:43;12.70;;;6.63;;
75417;SDS011;63997;52.112;5.420;2023-07-09T11:29:34;10.98;;;8.50;;
75417;SDS011;63997;52.112;5.420;2023-07-09T11:31:46;9.90;;;8.43;;
75417;SDS011;63997;52.112;5.420;2023-07-09T11:40:06;13.25;;;8.52;;
75417;SDS011;63997;52.112;5.420;2023-07-09T11:42:33;10.82;;;7.93;;
75417;SDS011;63997;52.112;5.420;2023-07-09T11:45:43;13.52;;;10.40;;
75417;SDS011;63997;52.112;5.420;2023-07-09T11:47:57;10.93;;;9.73;;
75417;SDS011;63997;52.112;5.420;2023-07-09T11:50:32;11.67;;;10.27;;
75417;SDS011;63997;52.112;5.420;2023-07-09T11:53:16;18.50;;;10.75;;
75417;SDS011;63997;52.112;5.420;2023-07-09T11:55:48;15.60;;;10.23;;
75417;SDS011;63997;52.112;5.420;2023-07-09T11:58:16;18.80;;;10.15;;
75417;SDS011;63997;52.112;5.420;2023-07-09T12:00:59;10.82;;;8.70;;
75417;SDS011;63997;52.112;5.420;2023-07-09T12:03:31;11.87;;;7.87;;
75417;SDS011;63997;52.112;5.420;2023-07-09T12:08:52;8.80;;;7.63;;
75417;SDS011;63997;52.112;5.420;2023-07-09T12:11:23;7.63;;;6.00;;
75417;SDS011;63997;52.112;5.420;2023-07-09T12:13:50;7.85;;;5.00;;
75417;SDS011;63997;52.112;5.420;2023-07-09T12:16:22;7.20;;;5.80;;
75417;SDS011;63997;52.112;5.420;2023-07-09T12:18:56;9.02;;;5.88;;
75417;SDS011;63997;52.112;5.420;2023-07-09T12:21:23;9.35;;;5.90;;
75417;SDS011;63997;52.112;5.420;2023-07-09T12:23:52;6.35;;;5.13;;
75417;SDS011;63997;52.112;5.420;2023-07-09T12:26:22;7.40;;;5.60;;
75417;SDS011;63997;52.112;5.420;2023-07-09T12:28:52;6.47;;;5.57;;
75417;SDS011;63997;52.112;5.420;2023-07-09T12:31:21;6.75;;;4.70;;
75417;SDS011;63997;52.112;5.420;2023-07-09T12:33:53;7.85;;;5.45;;
75417;SDS011;63997;52.112;5.420;2023-07-09T12:36:21;7.18;;;4.78;;
75417;SDS011;63997;52.112;5.420;2023-07-09T12:38:50;9.38;;;5.20;;
75417;SDS011;63997;52.112;5.420;2023-07-09T12:41:25;8.23;;;4.97;;
75417;SDS011;63997;52.112;5.420;2023-07-09T12:43:55;7.82;;;5.10;;
75417;SDS011;63997;52.112;5.420;2023-07-09T12:46:22;6.65;;;4.72;;
75417;SDS011;63997;52.112;5.420;2023-07-09T12:48:50;7.22;;;4.90;;
75417;SDS011;63997;52.112;5.420;2023-07-09T12:51:20;7.78;;;5.32;;
75417;SDS011;63997;52.112;5.420;2023-07-09T12:54:01;8.60;;;5.57;;
75417;SDS011;63997;52.112;5.420;2023-07-09T12:56:28;7.10;;;5.07;;
75417;SDS011;63997;52.112;5.420;2023-07-09T12:58:56;5.70;;;4.97;;
75417;SDS011;63997;52.112;5.420;2023-07-09T13:01:23;9.60;;;5.53;;
75417;SDS011;63997;52.112;5.420;2023-07-09T13:03:55;7.47;;;5.85;;
75417;SDS011;63997;52.112;5.420;2023-07-09T13:06:29;7.47;;;5.43;;
75417;SDS011;63997;52.112;5.420;2023-07-09T13:09:00;8.07;;;5.88;;
75417;SDS011;63997;52.112;5.420;2023-07-09T13:11:32;9.07;;;5.43;;
75417;SDS011;63997;52.112;5.420;2023-07-09T13:14:05;8.15;;;5.70;;
75417;SDS011;63997;52.112;5.420;2023-07-09T13:16:41;6.80;;;5.63;;
75417;SDS011;63997;52.112;5.420;2023-07-09T13:19:11;7.00;;;5.50;;
75417;SDS011;63997;52.112;5.420;2023-07-09T13:21:38;7.30;;;5.40;;
75417;SDS011;63997;52.112;5.420;2023-07-09T13:24:11;9.23;;;4.80;;
75417;SDS011;63997;52.112;5.420;2023-07-09T13:27:05;9.68;;;4.45;;
75417;SDS011;63997;52.112;5.420;2023-07-09T13:29:38;10.85;;;5.65;;
75417;SDS011;63997;52.112;5.420;2023-07-09T13:32:14;6.40;;;5.80;;
75417;SDS011;63997;52.112;5.420;2023-07-09T13:34:42;9.73;;;5.50;;
75417;SDS011;63997;52.112;5.420;2023-07-09T13:37:13;6.35;;;4.45;;
75417;SDS011;63997;52.112;5.420;2023-07-09T13:39:41;7.30;;;5.13;;
75417;SDS011;63997;52.112;5.420;2023-07-09T13:42:13;8.82;;;6.00;;
75417;SDS011;63997;52.112;5.420;2023-07-09T13:44:44;8.37;;;5.47;;
75417;SDS011;63997;52.112;5.420;2023-07-09T13:47:13;7.28;;;5.15;;
75417;SDS011;63997;52.112;5.420;2023-07-09T13:49:43;7.13;;;5.10;;
75417;SDS011;63997;52.112;5.420;2023-07-09T13:52:21;9.23;;;4.93;;
75417;SDS011;63997;52.112;5.420;2023-07-09T13:54:52;5.88;;;4.70;;
75417;SDS011;63997;52.112;5.420;2023-07-09T13:57:19;5.97;;;4.53;;
75417;SDS011;63997;52.112;5.420;2023-07-09T13:59:47;8.25;;;4.60;;
75417;SDS011;63997;52.112;5.420;2023-07-09T14:02:20;6.40;;;4.75;;
75417;SDS011;63997;52.112;5.420;2023-07-09T14:04:55;4.95;;;4.03;;
75417;SDS011;63997;52.112;5.420;2023-07-09T14:07:29;4.80;;;3.95;;
75417;SDS011;63997;52.112;5.420;2023-07-09T14:10:02;4.83;;;3.70;;
75417;SDS011;63997;52.112;5.420;2023-07-09T14:12:30;7.32;;;3.83;;
75417;SDS011;63997;52.112;5.420;2023-07-09T14:14:58;3.53;;;2.97;;
75417;SDS011;63997;52.112;5.420;2023-07-09T14:17:27;4.18;;;2.90;;
75417;SDS011;63997;52.112;5.420;2023-07-09T14:19:53;4.97;;;3.03;;
75417;SDS011;63997;52.112;5.420;2023-07-09T14:22:26;5.43;;;2.80;;
75417;SDS011;63997;52.112;5.420;2023-07-09T14:24:57;10.00;;;3.10;;
75417;SDS011;63997;52.112;5.420;2023-07-09T14:27:25;5.03;;;2.72;;
75417;SDS011;63997;52.112;5.420;2023-07-09T14:29:52;5.97;;;2.83;;
75417;SDS011;63997;52.112;5.420;2023-07-09T14:32:36;5.53;;;2.65;;
75417;SDS011;63997;52.112;5.420;2023-07-09T14:35:17;6.50;;;2.57;;
75417;SDS011;63997;52.112;5.420;2023-07-09T14:37:47;5.57;;;2.30;;
75417;SDS011;63997;52.112;5.420;2023-07-09T14:40:15;5.57;;;2.50;;
75417;SDS011;63997;52.112;5.420;2023-07-09T14:42:43;7.63;;;2.50;;
75417;SDS011;63997;52.112;5.420;2023-07-09T14:45:17;7.03;;;3.30;;
75417;SDS011;63997;52.112;5.420;2023-07-09T14:47:50;7.90;;;2.83;;
75417;SDS011;63997;52.112;5.420;2023-07-09T14:50:20;7.57;;;2.60;;
75417;SDS011;63997;52.112;5.420;2023-07-09T14:52:48;10.30;;;2.45;;
75417;SDS011;63997;52.112;5.420;2023-07-09T14:55:19;7.95;;;3.10;;
75417;SDS011;63997;52.112;5.420;2023-07-09T14:57:47;11.82;;;2.60;;
75417;SDS011;63997;52.112;5.420;2023-07-09T15:00:18;11.07;;;3.17;;
75417;SDS011;63997;52.112;5.420;2023-07-09T15:02:48;9.48;;;2.72;;
75417;SDS011;63997;52.112;5.420;2023-07-09T15:05:18;4.90;;;2.60;;
75417;SDS011;63997;52.112;5.420;2023-07-09T15:07:46;8.60;;;2.88;;
75417;SDS011;63997;52.112;5.420;2023-07-09T15:10:31;5.43;;;2.60;;
75417;SDS011;63997;52.112;5.420;2023-07-09T15:12:57;6.90;;;3.13;;
75417;SDS011;63997;52.112;5.420;2023-07-09T15:15:28;4.80;;;1.98;;
75417;SDS011;63997;52.112;5.420;2023-07-09T15:17:56;4.65;;;2.40;;
75417;SDS011;63997;52.112;5.420;2023-07-09T15:20:25;2.60;;;1.30;;
75417;SDS011;63997;52.112;5.420;2023-07-09T15:22:57;4.32;;;1.60;;
75417;SDS011;63997;52.112;5.420;2023-07-09T15:25:26;4.93;;;1.67;;
75417;SDS011;63997;52.112;5.420;2023-07-09T15:27:55;6.80;;;1.88;;
75417;SDS011;63997;52.112;5.420;2023-07-09T15:30:23;9.02;;;2.58;;
75417;SDS011;63997;52.112;5.420;2023-07-09T15:32:51;4.60;;;2.30;;
75417;SDS011;63997;52.112;5.420;2023-07-09T15:35:21;7.43;;;2.85;;
75417;SDS011;63997;52.112;5.420;2023-07-09T15:37:48;7.73;;;3.20;;